Time;durP1;ratioP1;P1;durP2;ratioP2;P2;SDS_P1;SDS_P2;PMS_P1;PMS_P2;Temp;Humidity;BMP_temperature;BMP_pressure;BME280_temperature;BME280_humidity;BME280_pressure;Samples;Min_cycle;Max_cycle;Signal;HPM_P1;HPM_P2
2022/08/15 00:01:20;;;;;;;8.15;6.43;;;;;;;-148.88;51.13;73584.13;4994369;28;20113;-76
2022/08/15 00:03:52;;;;;;;12.13;7.00;;;;;;;-148.88;51.12;73584.13;4992875;28;20401;-76
2022/08/15 00:06:43;;;;;;;7.30;6.60;;;;;;;-148.88;51.35;73588.19;4992988;28;20033;-76
2022/08/15 00:09:18;;;;;;;7.45;6.47;;;;;;;-148.88;51.34;73588.19;4983508;28;20066;-76
2022/08/15 00:11:48;;;;;;;8.13;6.50;;;;;;;-148.88;51.76;73592.25;4993036;28;20050;-77
2022/08/15 00:14:22;;;;;;;10.13;7.00;;;;;;;-148.88;51.63;73598.31;4994360;28;20397;-76
2022/08/15 00:16:48;;;;;;;9.02;6.55;;;;;;;-148.88;51.80;73604.41;4994162;28;20080;-76
2022/08/15 00:19:24;;;;;;;8.13;6.45;;;;;;;-148.88;51.82;73612.53;4994188;28;20022;-75
2022/08/15 00:21:54;;;;;;;7.95;6.32;;;;;;;-148.88;51.96;73612.53;4994442;28;20485;-75
2022/08/15 00:24:25;;;;;;;7.03;6.32;;;;;;;-148.88;52.01;73612.53;4992918;28;20404;-75
2022/08/15 00:26:51;;;;;;;9.23;6.97;;;;;;;-148.88;51.99;73616.59;4992593;28;20030;-75
2022/08/15 00:29:19;;;;;;;10.65;6.90;;;;;;;-148.88;52.17;73610.50;4994024;28;20030;-76
2022/08/15 00:31:45;;;;;;;8.32;6.25;;;;;;;-148.88;52.07;73604.41;4993968;28;20105;-76
2022/08/15 00:34:14;;;;;;;8.18;5.97;;;;;;;-148.88;51.86;73608.47;4993856;28;20030;-76
2022/08/15 00:36:39;;;;;;;7.57;6.43;;;;;;;-148.88;51.94;73606.44;4992574;28;20044;-76
2022/08/15 00:39:06;;;;;;;9.05;6.45;;;;;;;-148.88;52.11;73602.38;4993746;28;20485;-76
2022/08/15 00:41:41;;;;;;;7.82;6.70;;;;;;;-148.88;52.16;73600.34;4993764;28;20060;-76
2022/08/15 00:44:23;;;;;;;8.55;7.32;;;;;;;-148.88;52.37;73608.47;4993832;28;20026;-77
2022/08/15 00:46:53;;;;;;;8.57;6.22;;;;;;;-148.88;52.44;73600.34;4993969;28;20034;-76
2022/08/15 00:49:20;;;;;;;8.10;6.97;;;;;;;-148.88;52.57;73604.41;4993746;28;20110;-76
2022/08/15 00:51:53;;;;;;;8.07;6.60;;;;;;;-148.88;52.30;73608.47;4993677;28;20053;-76
2022/08/15 00:54:39;;;;;;;7.68;6.72;;;;;;;-148.88;52.60;73610.50;4993925;28;20034;-76
2022/08/15 00:57:19;;;;;;;8.70;6.65;;;;;;;-148.88;52.88;73608.47;4993716;28;20080;-76
2022/08/15 00:59:51;;;;;;;8.25;6.53;;;;;;;-148.88;52.77;73606.44;4993712;28;20037;-76
2022/08/15 01:02:21;;;;;;;8.65;6.70;;;;;;;-148.88;52.88;73612.53;4994152;28;20029;-75
2022/08/15 01:04:47;;;;;;;10.57;6.90;;;;;;;-148.88;52.88;73610.50;4994324;28;20027;-75
2022/08/15 01:07:14;;;;;;;9.52;6.78;;;;;;;-148.88;52.81;73612.53;4993530;28;20033;-75
2022/08/15 01:09:40;;;;;;;8.20;7.28;;;;;;;-148.88;52.76;73602.38;5005736;23;20066;-77
2022/08/15 01:12:13;;;;;;;9.63;7.75;;;;;;;-148.88;53.04;73600.34;4992988;28;20396;-77
2022/08/15 01:14:43;;;;;;;10.45;7.20;;;;;;;-148.88;52.80;73606.44;4991464;28;20053;-76
2022/08/15 01:17:09;;;;;;;10.48;6.97;;;;;;;-148.88;52.80;73594.28;4992719;28;20030;-77
2022/08/15 01:19:49;;;;;;;9.63;7.22;;;;;;;-148.88;52.79;73592.25;4992780;28;20038;-76
2022/08/15 01:22:27;;;;;;;11.52;7.22;;;;;;;-148.88;52.78;73590.22;4996686;28;20026;-76
2022/08/15 01:25:00;;;;;;;9.45;6.78;;;;;;;-148.88;52.39;73588.19;4996919;28;20038;-78
2022/08/15 01:27:31;;;;;;;9.65;7.20;;;;;;;-148.88;52.87;73590.22;4996592;28;20037;-77
2022/08/15 01:29:57;;;;;;;8.52;6.75;;;;;;;-148.88;52.78;73590.22;4996590;28;20084;-76
2022/08/15 01:32:22;;;;;;;8.80;6.65;;;;;;;-148.88;52.68;73592.25;4996674;28;20120;-77
2022/08/15 01:34:48;;;;;;;8.13;6.63;;;;;;;-148.88;52.17;73584.13;4996615;28;20073;-76
2022/08/15 01:37:16;;;;;;;7.78;6.88;;;;;;;-148.88;51.94;73580.06;4996569;28;20061;-76
2022/08/15 01:40:19;;;;;;;7.95;6.70;;;;;;;-148.88;52.04;73576.00;4996635;28;20022;-76
2022/08/15 01:42:48;;;;;;;6.95;6.15;;;;;;;-148.88;52.00;73576.00;4995242;28;20101;-78
2022/08/15 01:45:21;;;;;;;7.95;5.95;;;;;;;-148.88;51.67;73580.06;4996564;28;20105;-76
2022/08/15 01:47:59;;;;;;;7.32;6.50;;;;;;;-148.88;51.76;73573.97;4996219;28;20106;-77
2022/08/15 01:50:30;;;;;;;7.97;6.25;;;;;;;-148.88;51.61;73569.91;4996696;28;20101;-76
2022/08/15 01:53:13;;;;;;;7.82;6.18;;;;;;;-148.88;51.74;73571.94;4996521;28;20088;-76
2022/08/15 01:55:45;;;;;;;7.40;5.82;;;;;;;-148.88;52.03;73571.94;4994842;28;20061;-76
2022/08/15 01:58:11;;;;;;;8.37;6.20;;;;;;;-148.88;51.94;73571.94;4996059;28;20026;-77
2022/08/15 02:00:37;;;;;;;6.68;5.68;;;;;;;-148.88;51.86;73573.97;4994708;28;20381;-76
2022/08/15 02:03:03;;;;;;;7.63;5.78;;;;;;;-148.88;52.05;73576.00;4996044;28;20032;-77
2022/08/15 02:05:28;;;;;;;7.40;6.30;;;;;;;-148.88;52.01;73571.94;4995846;28;20058;-76
2022/08/15 02:07:54;;;;;;;11.93;6.10;;;;;;;-148.88;52.05;73567.88;4995792;28;20018;-77
2022/08/15 02:10:19;;;;;;;7.55;5.63;;;;;;;-148.88;52.09;73563.81;4995632;28;20030;-76
2022/08/15 02:12:44;;;;;;;6.53;5.50;;;;;;;-148.88;51.61;73547.56;4994485;28;20034;-76
2022/08/15 02:15:15;;;;;;;8.05;6.22;;;;;;;-148.88;51.83;73545.53;4995718;28;20023;-76
2022/08/15 02:17:42;;;;;;;7.55;6.00;;;;;;;-148.88;51.76;73551.63;4994441;28;20102;-77
2022/08/15 02:20:09;;;;;;;8.02;5.80;;;;;;;-148.88;51.72;73559.75;4995679;28;20034;-76
2022/08/15 02:22:34;;;;;;;7.40;5.45;;;;;;;-148.88;51.73;73555.69;4995540;28;20057;-77
2022/08/15 02:25:01;;;;;;;8.90;5.60;;;;;;;-148.88;51.50;73553.66;4994260;28;20397;-77
2022/08/15 02:27:31;;;;;;;5.93;5.07;;;;;;;-148.88;51.48;73549.59;4995402;28;20080;-77
2022/08/15 02:29:57;;;;;;;6.57;5.22;;;;;;;-148.88;51.66;73551.63;4994138;28;20027;-77
2022/08/15 02:32:22;;;;;;;6.07;5.30;;;;;;;-148.88;51.58;73545.53;4993670;28;20076;-77
2022/08/15 02:34:48;;;;;;;5.75;5.10;;;;;;;-148.88;51.53;73547.56;4995370;28;20057;-77
2022/08/15 02:37:19;;;;;;;6.22;5.30;;;;;;;-148.88;51.64;73545.53;4993936;28;20470;-78
2022/08/15 02:39:47;;;;;;;6.03;5.25;;;;;;;-148.88;51.58;73541.50;4995547;28;20018;-76
2022/08/15 02:42:15;;;;;;;6.95;5.28;;;;;;;-148.88;51.25;73541.50;4995182;28;20030;-77
2022/08/15 02:44:41;;;;;;;5.75;4.88;;;;;;;-148.88;51.80;73541.50;4993833;28;20516;-77
2022/08/15 02:47:08;;;;;;;6.53;5.20;;;;;;;-148.88;51.73;73543.50;4993507;28;20031;-77
2022/08/15 02:49:33;;;;;;;6.30;5.20;;;;;;;-148.88;51.96;73547.56;4995153;28;20038;-77
2022/08/15 02:52:00;;;;;;;8.25;5.25;;;;;;;-148.88;52.07;73543.50;4993674;28;20022;-77
2022/08/15 02:54:27;;;;;;;6.20;5.35;;;;;;;-148.88;51.92;73539.47;4995221;28;20381;-77
2022/08/15 02:56:54;;;;;;;6.68;5.22;;;;;;;-148.88;52.13;73539.47;4993558;28;20105;-77
2022/08/15 02:59:19;;;;;;;5.88;5.00;;;;;;;-148.88;52.04;73535.41;4994890;28;20026;-77
2022/08/15 03:01:44;;;;;;;7.00;4.97;;;;;;;-148.88;52.51;73533.38;4994885;28;20085;-77
2022/08/15 03:04:15;;;;;;;6.32;5.15;;;;;;;-148.88;52.87;73535.41;4994861;28;20030;-76
2022/08/15 03:06:43;;;;;;;6.88;5.55;;;;;;;-148.88;53.67;73539.47;4995160;28;20026;-77
2022/08/15 03:09:10;;;;;;;8.27;6.18;;;;;;;-148.88;54.35;73539.47;4995444;28;20028;-77
2022/08/15 03:11:38;;;;;;;7.35;5.97;;;;;;;-148.88;54.50;73543.50;4995614;28;20033;-77
2022/08/15 03:14:08;;;;;;;11.13;6.10;;;;;;;-148.88;54.61;73545.53;4995261;28;20061;-76
2022/08/15 03:16:43;;;;;;;8.60;6.43;;;;;;;-148.88;54.99;73549.59;4993943;28;20025;-77
2022/08/15 03:19:09;;;;;;;8.63;6.78;;;;;;;-148.88;56.02;73549.59;4993820;28;20042;-76
2022/08/15 03:21:36;;;;;;;10.75;7.32;;;;;;;-148.88;57.03;73543.50;4993807;28;20045;-76
2022/08/15 03:24:02;;;;;;;11.27;6.75;;;;;;;-148.88;58.90;73539.47;4995178;28;20437;-77
2022/08/15 03:26:27;;;;;;;8.38;7.43;;;;;;;-148.88;58.70;73547.56;4994908;28;20030;-77
2022/08/15 03:28:53;;;;;;;10.13;6.78;;;;;;;-148.88;59.73;73571.94;4994963;28;20109;-77
2022/08/15 03:31:19;;;;;;;8.52;7.18;;;;;;;-148.88;59.86;73565.84;4993673;28;20022;-77
2022/08/15 03:33:45;;;;;;;8.25;6.82;;;;;;;-148.88;61.03;73567.88;4996240;28;20085;-78
2022/08/15 03:36:11;;;;;;;8.70;7.20;;;;;;;-148.88;60.88;73571.94;4994335;28;20022;-77
2022/08/15 03:38:37;;;;;;;9.80;7.75;;;;;;;-148.88;62.40;73588.19;4993478;28;20036;-76
2022/08/15 03:41:07;;;;;;;9.77;7.20;;;;;;;-148.88;63.58;73600.34;4994973;28;20018;-76
2022/08/15 03:43:32;;;;;;;8.90;7.45;;;;;;;-148.88;62.55;73600.34;4994093;28;20049;-76
2022/08/15 03:46:02;;;;;;;8.95;7.20;;;;;;;-148.88;63.37;73588.19;4995000;28;20053;-76
2022/08/15 03:48:31;;;;;;;9.35;7.57;;;;;;;-148.88;63.15;73610.50;4994732;28;20034;-76
2022/08/15 03:50:59;;;;;;;9.55;7.45;;;;;;;-148.88;63.73;73610.50;4993203;28;20532;-76
2022/08/15 03:53:30;;;;;;;9.63;7.38;;;;;;;-148.88;64.46;73628.78;4994731;28;20366;-76
2022/08/15 03:55:58;;;;;;;8.88;7.78;;;;;;;-148.88;65.71;73632.84;4994409;28;20400;-76
2022/08/15 03:58:23;;;;;;;8.90;6.97;;;;;;;-148.88;62.60;73630.81;4994317;28;20033;-76
2022/08/15 04:00:49;;;;;;;8.45;7.55;;;;;;;-148.88;61.61;73640.97;4993268;28;20034;-76
2022/08/15 04:03:19;;;;;;;9.07;7.90;;;;;;;-148.88;61.12;73640.97;4994288;28;20509;-76
2022/08/15 04:05:52;;;;;;;9.85;6.95;;;;;;;-148.88;61.49;73634.88;4992980;28;20121;-76
2022/08/15 04:08:23;;;;;;;8.73;7.65;;;;;;;-148.88;60.73;73636.91;4992999;28;20022;-76
2022/08/15 04:10:51;;;;;;;10.23;7.78;;;;;;;-148.88;60.71;73632.84;4994006;28;20104;-76
2022/08/15 04:13:24;;;;;;;9.30;7.78;;;;;;;-148.88;60.63;73624.72;4992776;28;20515;-75
2022/08/15 04:15:58;;;;;;;8.60;7.50;;;;;;;-148.88;61.87;73640.97;4992901;28;20019;-77
2022/08/15 04:18:27;;;;;;;9.38;7.78;;;;;;;-148.88;62.12;73640.97;4992983;28;20114;-76
2022/08/15 04:21:03;;;;;;;10.27;7.78;;;;;;;-148.88;62.40;73640.97;4994211;28;20030;-76
2022/08/15 04:23:30;;;;;;;10.40;7.60;;;;;;;-148.88;61.88;73632.84;4994499;28;20030;-76
2022/08/15 04:25:56;;;;;;;8.98;7.60;;;;;;;-148.88;61.89;73632.84;4993001;28;20030;-76
2022/08/15 04:28:24;;;;;;;9.50;7.10;;;;;;;-148.88;62.09;73626.75;4993917;28;20028;-76
2022/08/15 04:30:50;;;;;;;12.23;7.18;;;;;;;-148.88;62.08;73638.94;4992703;28;20105;-76
2022/08/15 04:33:20;;;;;;;8.73;7.18;;;;;;;-148.88;61.82;73638.94;4992530;28;20574;-75
2022/08/15 04:35:48;;;;;;;11.85;7.82;;;;;;;-148.88;61.95;73636.91;4992397;28;20438;-75
2022/08/15 04:38:15;;;;;;;10.10;7.20;;;;;;;-148.88;62.00;73636.91;4993617;28;20033;-75
2022/08/15 04:40:42;;;;;;;8.95;6.53;;;;;;;-148.88;61.92;73632.84;4993568;28;20092;-76
2022/08/15 04:43:07;;;;;;;8.70;6.90;;;;;;;-148.88;62.00;73632.84;4993641;28;20481;-75
2022/08/15 04:45:34;;;;;;;11.48;7.30;;;;;;;-148.88;62.04;73632.84;4992240;28;20037;-75
2022/08/15 04:48:04;;;;;;;9.15;6.63;;;;;;;-148.88;61.72;73634.88;4991820;28;20034;-75
2022/08/15 04:50:35;;;;;;;11.13;7.40;;;;;;;-148.88;61.44;73634.88;4992380;28;20054;-75
2022/08/15 04:53:02;;;;;;;7.88;6.75;;;;;;;-148.88;61.55;73634.88;4992363;28;20056;-75
2022/08/15 04:55:28;;;;;;;7.90;7.10;;;;;;;-148.88;61.27;73632.84;4992033;28;20038;-75
2022/08/15 04:57:55;;;;;;;10.02;7.07;;;;;;;-148.88;61.84;73636.91;4993425;28;20018;-75
2022/08/15 05:00:25;;;;;;;10.13;7.05;;;;;;;-148.88;62.17;73632.84;4993646;28;20057;-75
2022/08/15 05:03:06;;;;;;;9.05;6.50;;;;;;;-148.88;61.95;73638.94;4993716;28;20429;-75
2022/08/15 05:05:34;;;;;;;8.23;6.72;;;;;;;-148.88;61.95;73632.84;4993483;28;20029;-75
2022/08/15 05:07:59;;;;;;;7.40;6.38;;;;;;;-148.88;62.08;73626.75;4992185;28;20477;-75
2022/08/15 05:10:25;;;;;;;7.38;6.47;;;;;;;-148.88;62.10;73628.78;4993210;28;20076;-75
2022/08/15 05:12:50;;;;;;;8.05;6.38;;;;;;;-148.88;62.17;73636.91;4993273;28;20023;-76
2022/08/15 05:15:18;;;;;;;8.93;7.40;;;;;;;-148.88;62.48;73636.91;4991922;28;20084;-76
2022/08/15 05:17:45;;;;;;;7.80;5.90;;;;;;;-148.88;62.32;73643.00;4991819;28;20113;-76
2022/08/15 05:20:12;;;;;;;8.98;6.28;;;;;;;-148.88;62.35;73649.09;4993129;28;20477;-75
2022/08/15 05:22:51;;;;;;;13.82;7.15;;;;;;;-148.88;62.40;73655.16;4992724;28;20030;-76
2022/08/15 05:25:17;;;;;;;10.20;7.00;;;;;;;-148.88;62.51;73649.09;4993445;28;20033;-75
2022/08/15 05:27:43;;;;;;;9.18;7.07;;;;;;;-148.88;62.47;73645.03;4992984;28;20080;-76
2022/08/15 05:30:09;;;;;;;9.25;7.05;;;;;;;-148.88;62.17;73647.06;4993481;28;20101;-76
2022/08/15 05:32:34;;;;;;;12.15;7.88;;;;;;;-148.88;62.11;73645.03;4993132;28;20481;-76
2022/08/15 05:34:59;;;;;;;8.90;6.95;;;;;;;-148.88;62.42;73640.97;4992022;28;20037;-76
2022/08/15 05:37:25;;;;;;;8.15;7.18;;;;;;;-148.88;62.85;73632.84;4991789;28;20100;-76
2022/08/15 05:39:51;;;;;;;11.68;7.75;;;;;;;-148.88;63.10;73632.84;4993336;28;20022;-76
2022/08/15 05:42:54;;;;;;;10.20;7.80;;;;;;;-148.88;63.18;73620.66;4993063;28;20038;-76
2022/08/15 05:45:39;;;;;;;9.05;7.68;;;;;;;-148.88;63.05;73618.63;4992885;28;20118;-76
2022/08/15 05:48:12;;;;;;;9.52;7.60;;;;;;;-148.88;63.05;73612.53;4991669;28;20493;-76
2022/08/15 05:50:49;;;;;;;9.23;7.28;;;;;;;-148.88;62.76;73602.38;4993144;28;20058;-77
2022/08/15 05:53:33;;;;;;;8.90;6.68;;;;;;;-148.88;62.70;73600.34;4993135;28;20437;-77
2022/08/15 05:56:30;;;;;;;8.60;6.95;;;;;;;-148.88;63.43;73604.41;4992776;28;20057;-76
2022/08/15 05:59:05;;;;;;;12.07;7.38;;;;;;;-148.88;63.60;73592.25;4992841;28;20030;-76
2022/08/15 06:01:45;;;;;;;10.70;7.30;;;;;;;-148.88;63.42;73592.25;4992857;28;20438;-77
2022/08/15 06:04:22;;;;;;;9.38;7.47;;;;;;;-148.88;63.54;73592.25;4992872;28;20037;-76
2022/08/15 06:06:50;;;;;;;11.32;7.32;;;;;;;-148.88;63.92;73596.31;4994454;28;20030;-77
2022/08/15 06:09:27;;;;;;;8.90;6.60;;;;;;;-148.88;63.40;73600.34;4996183;28;20042;-76
2022/08/15 06:11:55;;;;;;;12.50;7.05;;;;;;;-148.88;63.40;73606.44;4996293;28;20104;-76
2022/08/15 06:14:31;;;;;;;11.82;7.40;;;;;;;-148.88;63.80;73604.41;4994980;28;20030;-76
2022/08/15 06:17:06;;;;;;;8.38;7.13;;;;;;;-148.88;63.78;73592.25;4996096;28;20444;-76
2022/08/15 06:19:37;;;;;;;9.02;7.32;;;;;;;-148.88;63.12;73584.13;4994888;28;20022;-76
2022/08/15 06:22:49;;;;;;;8.10;6.55;;;;;;;-148.88;63.05;73582.09;4996092;28;20033;-76
2022/08/15 06:25:19;;;;;;;7.45;6.53;;;;;;;-148.88;62.85;73578.03;4996043;28;20023;-76
2022/08/15 06:28:07;;;;;;;7.80;6.70;;;;;;;-148.88;63.06;73571.94;4994599;28;20396;-77
2022/08/15 06:30:44;;;;;;;9.65;6.90;;;;;;;-148.88;62.50;73569.91;4995796;28;20030;-77
2022/08/15 06:33:19;;;;;;;12.20;7.50;;;;;;;-148.88;62.20;73559.75;4994570;28;20395;-76
2022/08/15 06:36:27;;;;;;;11.05;7.03;;;;;;;-148.88;62.27;73547.56;4995776;28;20370;-77
2022/08/15 06:39:04;;;;;;;13.63;7.82;;;;;;;-148.88;62.73;73553.66;4948259;28;20062;-77
2022/08/15 06:41:32;;;;;;;10.10;7.53;;;;;;;-148.88;63.56;73555.69;4995642;28;20076;-76
2022/08/15 06:43:59;;;;;;;9.50;7.40;;;;;;;-148.88;63.44;73555.69;4995530;28;20113;-77
2022/08/15 06:46:32;;;;;;;9.95;6.68;;;;;;;-148.88;62.65;73557.72;4994232;28;20026;-77
2022/08/15 06:49:03;;;;;;;8.43;6.97;;;;;;;-148.88;62.47;73563.81;4994286;28;20042;-76
2022/08/15 06:51:31;;;;;;;10.80;7.30;;;;;;;-148.88;62.52;73571.94;4995534;28;20077;-76
2022/08/15 06:53:58;;;;;;;8.15;6.63;;;;;;;-148.88;62.68;73571.94;4995725;28;20032;-76
2022/08/15 06:56:32;;;;;;;9.02;6.97;;;;;;;-148.88;63.28;73567.88;4995322;28;20452;-76
2022/08/15 06:59:01;;;;;;;8.43;7.35;;;;;;;-148.88;63.96;73557.72;4995354;28;20106;-76
2022/08/15 07:01:40;;;;;;;10.10;7.65;;;;;;;-148.88;64.50;73555.69;4993995;28;20066;-77
2022/08/15 07:04:21;;;;;;;8.65;6.93;;;;;;;-148.88;64.33;73547.56;4995275;28;20034;-77
2022/08/15 07:06:55;;;;;;;11.02;7.32;;;;;;;-148.88;64.33;73527.28;4993816;28;20034;-76
2022/08/15 07:09:46;;;;;;;9.27;7.78;;;;;;;-148.88;63.53;73504.94;4994968;28;20034;-77
2022/08/15 07:12:22;;;;;;;9.27;7.55;;;;;;;-148.88;62.51;73474.50;4995074;28;20062;-76
2022/08/15 07:15:12;;;;;;;9.55;7.03;;;;;;;-148.88;60.46;73458.25;4995089;28;20034;-77
2022/08/15 07:17:45;;;;;;;10.07;6.93;;;;;;;-148.88;58.18;73433.91;4992869;28;20015;-76
2022/08/15 07:20:11;;;;;;;8.98;7.38;;;;;;;-148.88;57.26;73421.72;4995397;28;20606;-76
2022/08/15 07:22:39;;;;;;;8.63;6.80;;;;;;;-148.88;57.07;73401.41;4994920;28;20066;-76
2022/08/15 07:25:10;;;;;;;9.50;6.55;;;;;;;-148.88;55.63;73393.28;4994962;28;20026;-76
2022/08/15 07:27:36;;;;;;;8.20;6.53;;;;;;;-148.88;55.24;73379.09;4994995;28;20077;-76
2022/08/15 07:30:22;;;;;;;10.55;6.78;;;;;;;-148.88;53.92;73364.88;4993776;28;20077;-76
2022/08/15 07:32:55;;;;;;;8.85;6.72;;;;;;;-148.88;54.70;73356.75;4995056;28;20026;-76
2022/08/15 07:35:26;;;;;;;9.27;6.95;;;;;;;-148.88;55.00;73342.53;4993634;28;20026;-76
2022/08/15 07:37:59;;;;;;;8.23;5.88;;;;;;;-148.88;54.73;73332.41;4994710;28;20072;-76
2022/08/15 07:40:41;;;;;;;8.25;6.03;;;;;;;-148.88;54.89;73322.25;4994625;28;20029;-76
2022/08/15 07:43:27;;;;;;;8.52;6.95;;;;;;;-148.88;52.28;73301.94;4994611;28;20089;-76
2022/08/15 07:46:12;;;;;;;9.00;6.30;;;;;;;-148.88;52.13;73293.81;4994166;28;20129;-76
2022/08/15 07:48:38;;;;;;;7.20;6.35;;;;;;;-148.88;51.88;73283.69;4994624;28;20026;-76
2022/08/15 07:51:22;;;;;;;10.20;6.55;;;;;;;-148.88;51.52;73269.47;4994322;28;20092;-76
2022/08/15 07:53:53;;;;;;;8.57;6.10;;;;;;;-148.88;50.50;73265.41;4992985;28;20396;-76
2022/08/15 07:56:20;;;;;;;7.63;6.43;;;;;;;-148.88;49.53;73259.31;4994401;28;20034;-76
2022/08/15 07:58:48;;;;;;;8.40;6.03;;;;;;;-148.88;48.39;73247.13;4994141;28;20477;-76
2022/08/15 08:01:13;;;;;;;9.35;6.53;;;;;;;-148.88;48.63;73237.00;4992927;28;20018;-76
2022/08/15 08:03:45;;;;;;;9.37;6.63;;;;;;;-148.88;48.63;73200.44;4994328;28;20362;-76
2022/08/15 08:06:45;;;;;;;8.80;6.57;;;;;;;-148.88;47.73;73198.41;4994074;28;20481;-76
2022/08/15 08:09:22;;;;;;;7.78;6.45;;;;;;;-148.88;47.63;73186.25;4994029;28;20022;-76
2022/08/15 08:11:54;;;;;;;9.90;6.63;;;;;;;-148.88;46.91;73178.13;4994028;28;20054;-76
2022/08/15 08:14:33;;;;;;;9.05;6.45;;;;;;;-148.88;46.69;73192.31;4994039;28;20029;-76
2022/08/15 08:17:33;;;;;;;9.90;6.22;;;;;;;-148.88;47.33;73188.28;4993831;28;20015;-76
2022/08/15 08:20:11;;;;;;;7.97;6.03;;;;;;;-148.88;47.11;73192.31;4990701;28;20041;-76
2022/08/15 08:22:46;;;;;;;10.05;5.90;;;;;;;-148.88;46.20;73188.28;4993880;28;20109;-76
2022/08/15 08:25:30;;;;;;;6.18;5.30;;;;;;;-148.88;46.62;73176.09;4992561;28;20022;-76
2022/08/15 08:28:09;;;;;;;5.95;5.05;;;;;;;-148.88;45.24;73155.78;4992382;28;20038;-76
2022/08/15 08:31:04;;;;;;;11.07;5.72;;;;;;;-148.88;44.79;73163.91;4993485;28;20058;-76
2022/08/15 08:33:48;;;;;;;9.15;5.70;;;;;;;-148.88;44.56;73161.88;4983756;28;20042;-76
2022/08/15 08:36:21;;;;;;;8.15;6.15;;;;;;;-148.88;44.23;73163.91;4992628;28;20433;-76
2022/08/15 08:38:58;;;;;;;9.20;5.70;;;;;;;-148.88;45.39;73178.13;4993843;28;20034;-76
2022/08/15 08:41:37;;;;;;;9.35;5.90;;;;;;;-148.88;46.42;73165.94;4993540;28;20026;-76
2022/08/15 08:44:33;;;;;;;8.70;6.13;;;;;;;-148.88;45.51;73163.91;4993568;28;20073;-76
2022/08/15 08:47:16;;;;;;;9.38;5.65;;;;;;;-148.88;46.78;73174.06;4992208;28;20493;-76
2022/08/15 08:50:01;;;;;;;;;;;;;;;-148.88;46.40;73157.81;4994154;28;20058;-76
2022/08/15 08:52:40;;;;;;;10.18;6.07;;;;;;;-148.88;46.53;73141.59;4993720;28;19914;-76
2022/08/15 08:55:25;;;;;;;7.43;5.88;;;;;;;-148.88;44.91;73129.41;4993452;28;20136;-76
2022/08/15 08:57:58;;;;;;;9.80;6.78;;;;;;;-148.88;44.28;73163.91;4993355;28;20081;-76
2022/08/15 09:00:31;;;;;;;8.27;6.50;;;;;;;-148.88;44.98;73182.19;4992270;28;20053;-76
2022/08/15 09:03:06;;;;;;;8.85;5.55;;;;;;;-148.88;44.81;73129.41;4993306;28;20037;-76
2022/08/15 09:05:38;;;;;;;7.18;5.20;;;;;;;-148.88;43.72;73100.97;4993268;28;20105;-76
2022/08/15 09:08:12;;;;;;;6.60;4.93;;;;;;;-148.88;43.46;73105.03;4991935;28;20503;-76
2022/08/15 09:10:42;;;;;;;7.07;5.70;;;;;;;-148.88;43.75;73088.81;4993166;28;20062;-76
2022/08/15 09:15:57;;;;;;;8.43;5.47;;;;;;;-148.88;44.05;73115.19;4993773;28;20034;-76
2022/08/15 09:18:31;;;;;;;8.85;5.50;;;;;;;-148.88;44.30;73137.53;4991953;28;20022;-76
2022/08/15 09:20:57;;;;;;;8.85;5.80;;;;;;;-148.88;44.21;73125.34;4991995;28;20030;-77
2022/08/15 09:23:23;;;;;;;10.82;5.45;;;;;;;-148.88;44.33;73133.47;4991926;28;20034;-76
2022/08/15 09:26:05;;;;;;;10.68;6.60;;;;;;;-148.88;43.62;73145.63;4993247;28;20026;-76
2022/08/15 09:28:37;;;;;;;9.95;5.65;;;;;;;-148.88;44.10;73137.53;4991786;28;20489;-77
2022/08/15 09:31:21;;;;;;;7.78;5.90;;;;;;;-148.88;44.73;73121.28;4993111;28;20026;-77
2022/08/15 09:34:04;;;;;;;8.80;5.53;;;;;;;-148.88;44.50;73105.03;4993268;28;20030;-76
2022/08/15 09:36:38;;;;;;;8.07;5.88;;;;;;;-148.88;43.16;73084.75;4992850;28;20049;-76
2022/08/15 09:39:32;;;;;;;10.77;6.00;;;;;;;-148.88;42.21;73076.63;4992927;28;20030;-76
2022/08/15 09:42:06;;;;;;;;;;;;;;;-148.88;41.58;73080.69;4995280;28;20038;-76
2022/08/15 09:45:04;;;;;;;8.82;6.30;;;;;;;-148.88;41.56;73054.28;4995447;28;19956;-76
2022/08/15 09:47:39;;;;;;;11.23;6.18;;;;;;;-148.88;40.87;73038.06;4995198;28;20026;-76
2022/08/15 09:50:28;;;;;;;14.10;6.97;;;;;;;-148.88;40.31;73031.97;4996666;28;20102;-75
2022/08/15 09:52:59;;;;;;;9.95;6.63;;;;;;;-148.88;41.22;73023.84;4995647;28;20054;-76
2022/08/15 09:55:46;;;;;;;11.15;5.80;;;;;;;-148.88;41.00;73025.88;4996611;28;20481;-76
2022/08/15 09:58:22;;;;;;;9.13;6.40;;;;;;;-148.88;42.07;73023.84;4996639;28;20485;-76
2022/08/15 10:00:57;;;;;;;7.80;5.90;;;;;;;-148.88;40.77;73021.81;4996915;28;20034;-76
2022/08/15 10:03:49;;;;;;;8.43;6.30;;;;;;;-148.88;40.51;73036.03;4996609;28;20038;-75
2022/08/15 10:06:25;;;;;;;9.13;5.90;;;;;;;-148.88;40.43;73031.97;4996592;28;20026;-76
2022/08/15 10:08:50;;;;;;;10.02;6.63;;;;;;;-148.88;40.10;73050.25;4994905;28;20026;-76
2022/08/15 10:11:48;;;;;;;8.03;6.50;;;;;;;-148.88;39.66;73048.22;5027520;23;20046;-90
2022/08/15 10:14:48;;;;;;;8.10;7.20;;;;;;;-148.88;40.00;73058.34;5000692;28;20046;-90
2022/08/15 10:17:33;;;;;;;11.98;6.80;;;;;;;-148.88;40.27;73080.69;4975147;28;20042;-90
2022/08/15 10:21:07;;;;;;;6.90;5.63;;;;;;;-148.88;42.00;73042.13;4995480;28;20084;-89
2022/08/15 10:23:36;;;;;;;7.88;5.40;;;;;;;-148.88;41.37;72999.50;4921138;29;20032;-88
2022/08/15 10:26:38;;;;;;;7.72;5.85;;;;;;;-148.88;39.38;73019.78;4954891;28;21894;-92
2022/08/15 10:29:55;;;;;;;12.73;5.60;;;;;;;-148.88;39.69;73005.59;4993873;28;20151;-90
2022/08/15 10:32:55;;;;;;;8.43;5.18;;;;;;;-148.88;39.66;72987.31;4979053;28;20038;-90
2022/08/15 10:35:45;;;;;;;7.15;4.95;;;;;;;-148.88;39.65;72973.09;4993420;28;20433;-89
2022/08/15 10:38:41;;;;;;;6.35;4.90;;;;;;;-148.88;37.65;72928.44;4996414;28;20364;-90
2022/08/15 10:41:44;;;;;;;7.20;4.50;;;;;;;-148.88;38.81;72889.88;4991488;28;20070;-89
2022/08/15 10:44:57;;;;;;;6.10;4.37;;;;;;;-148.88;37.14;72910.19;4994876;28;20030;-89
2022/08/15 10:47:34;;;;;;;8.60;4.60;;;;;;;-148.88;36.76;72893.94;4996293;28;20295;-89
2022/08/15 10:50:51;;;;;;;7.85;4.40;;;;;;;-148.88;38.01;72926.41;4996224;28;20026;-90
2022/08/15 10:54:09;;;;;;;8.15;4.18;;;;;;;-148.88;37.70;72934.53;4921472;29;20046;-90
2022/08/15 11:00:51;;;;;;;;;;;;;;;;;;;;;
2022/08/15 11:03:48;;;;;;;5.68;3.90;;;;;;;-148.88;38.58;72991.38;4996618;28;20449;-89
2022/08/15 11:06:24;;;;;;;8.20;5.22;;;;;;;-148.88;40.32;73094.91;4995372;28;20026;-90
2022/08/15 11:09:20;;;;;;;6.72;4.03;;;;;;;-148.88;40.93;73088.81;4996164;28;20030;-89
2022/08/15 11:12:08;;;;;;;8.75;3.92;;;;;;;-148.88;41.57;73161.88;4996093;28;20084;-89
2022/08/15 11:15:30;;;;;;;7.00;3.97;;;;;;;-148.88;41.65;73204.50;4994981;28;20113;-87
2022/08/15 11:18:23;;;;;;;7.10;3.70;;;;;;;-148.88;41.93;73218.72;4935525;29;20032;-89
2022/08/15 11:20:57;;;;;;;8.83;3.97;;;;;;;-148.88;42.84;73267.44;4919921;29;20038;-88
2022/08/15 11:24:06;;;;;;;7.63;4.00;;;;;;;-148.88;43.11;73312.09;4920160;29;20274;-91
2022/08/15 11:30:06;;;;;;;12.32;4.00;;;;;;;-148.88;45.13;73417.66;4933618;29;20135;-88
2022/08/15 11:32:45;;;;;;;15.07;4.78;;;;;;;-148.88;53.28;73531.34;4920792;29;20039;-91
2022/08/15 11:35:49;;;;;;;18.80;5.70;;;;;;;-148.88;61.44;73701.88;5000059;28;20038;-90
2022/08/15 11:38:28;;;;;;;9.32;5.53;;;;;;;-148.88;67.44;73785.09;4997873;28;20030;-89
2022/08/15 11:41:00;;;;;;;17.67;6.88;;;;;;;-148.88;73.19;73823.69;4994231;28;20058;-89
2022/08/15 11:43:32;;;;;;;12.85;6.40;;;;;;;-148.88;75.47;73876.47;4995914;28;20525;-90
2022/08/15 11:46:01;;;;;;;11.50;6.60;;;;;;;-148.88;76.43;73884.59;4995010;28;20026;-90
2022/08/15 11:48:39;;;;;;;8.25;5.43;;;;;;;-148.88;76.54;73890.69;4995210;28;20029;-90
2022/08/15 11:51:27;;;;;;;10.10;5.97;;;;;;;-148.88;77.80;73925.19;4997492;28;20034;-91
2022/08/15 11:54:23;;;;;;;9.25;6.00;;;;;;;-148.88;78.42;73937.38;4997636;28;20023;-91
2022/08/15 11:57:01;;;;;;;9.68;6.07;;;;;;;-148.88;79.49;73945.50;4999800;28;20018;-91
2022/08/15 11:59:55;;;;;;;7.15;6.00;;;;;;;-148.88;79.23;73933.31;4997345;28;20035;-92
2022/08/15 12:02:21;;;;;;;9.60;6.72;;;;;;;-148.88;80.74;73949.56;4998899;28;20032;-91
2022/08/15 12:04:48;;;;;;;9.43;6.88;;;;;;;-148.88;82.17;73957.69;4996511;28;20062;-91